createdAt,value
2022-08-30T00:00:15.421Z,11.06
2022-08-30T00:01:18.989Z,11.08
2022-08-30T00:02:15.916Z,11.03
2022-08-30T00:03:16.100Z,11.18
2022-08-30T00:04:15.387Z,11.1
2022-08-30T00:05:15.111Z,11.15
2022-08-30T00:06:15.354Z,11.1
2022-08-30T00:07:15.351Z,11
2022-08-30T00:08:15.903Z,11.05
2022-08-30T00:09:15.578Z,11.05
2022-08-30T00:10:15.310Z,11.02
2022-08-30T00:11:15.047Z,11
2022-08-30T00:12:15.290Z,11.05
2022-08-30T00:13:15.494Z,11.09
2022-08-30T00:14:15.274Z,11.02
2022-08-30T00:15:16.847Z,11.03
2022-08-30T00:16:15.574Z,11
2022-08-30T00:17:15.246Z,10.97
2022-08-30T00:18:16.191Z,10.94
2022-08-30T00:19:15.217Z,10.97
2022-08-30T00:20:15.204Z,10.98
2022-08-30T00:21:15.456Z,11
2022-08-30T00:22:15.187Z,11.06
2022-08-30T00:23:15.305Z,11.03
2022-08-30T00:24:15.159Z,10.92
2022-08-30T00:25:15.413Z,10.9
2022-08-30T00:26:15.142Z,10.9
2022-08-30T00:27:15.154Z,10.94
2022-08-30T00:28:14.868Z,10.94
2022-08-30T00:29:15.362Z,10.88
2022-08-30T00:30:15.104Z,10.88
2022-08-30T00:31:19.793Z,10.85
2022-08-30T00:32:15.079Z,10.84
2022-08-30T00:33:15.299Z,10.85
2022-08-30T00:34:15.063Z,10.79
2022-08-30T00:35:15.045Z,10.79
2022-08-30T00:36:15.033Z,10.85
2022-08-30T00:37:14.762Z,10.75
2022-08-30T00:38:15.266Z,10.85
2022-08-30T00:39:15.001Z,10.75
2022-08-30T00:40:14.923Z,10.7
2022-08-30T00:41:14.981Z,10.72
2022-08-30T00:42:14.980Z,10.7
2022-08-30T00:43:21.546Z,10.66
2022-08-30T00:44:14.942Z,10.65
2022-08-30T00:45:15.196Z,10.65
2022-08-30T00:46:15.286Z,10.69
2022-08-30T00:47:15.167Z,10.72
2022-08-30T00:48:15.157Z,10.72
2022-08-30T00:49:15.141Z,10.66
2022-08-30T00:50:14.878Z,10.67
2022-08-30T00:51:15.122Z,10.65
2022-08-30T00:52:14.857Z,10.66
2022-08-30T00:53:15.241Z,10.58
2022-08-30T00:54:15.087Z,10.58
2022-08-30T00:55:14.823Z,10.59
2022-08-30T00:56:15.067Z,10.54
2022-08-30T00:57:14.798Z,10.57
2022-08-30T00:58:15.039Z,10.54
2022-08-30T00:59:14.952Z,10.54
2022-08-30T01:00:14.766Z,10.57
2022-08-30T01:01:15.338Z,10.54
2022-08-30T01:02:15.037Z,10.55
2022-08-30T01:03:14.837Z,10.51
2022-08-30T01:04:14.977Z,10.49
2022-08-30T01:05:18.553Z,10.49
2022-08-30T01:06:14.957Z,10.49
2022-08-30T01:07:14.945Z,10.55
2022-08-30T01:08:14.675Z,10.47
2022-08-30T01:09:14.921Z,10.47
2022-08-30T01:10:14.911Z,10.44
2022-08-30T01:11:14.899Z,10.51
2022-08-30T01:12:14.892Z,10.51
2022-08-30T01:13:14.915Z,10.46
2022-08-30T01:14:14.862Z,10.46
2022-08-30T01:15:14.595Z,10.54
2022-08-30T01:16:15.122Z,10.47
2022-08-30T01:17:15.278Z,10.51
2022-08-30T01:18:15.697Z,10.44
2022-08-30T01:19:16.599Z,10.49
2022-08-30T01:20:14.543Z,10.42
2022-08-30T01:21:14.280Z,10.38
2022-08-30T01:22:14.518Z,10.44
2022-08-30T01:23:14.472Z,10.35
2022-08-30T01:24:14.752Z,10.38
2022-08-30T01:25:14.497Z,10.38
2022-08-30T01:26:14.217Z,10.35
2022-08-30T01:27:14.721Z,10.28
2022-08-30T01:28:14.196Z,10.23
2022-08-30T01:29:14.695Z,10.32
2022-08-30T01:30:14.435Z,10.32
2022-08-30T01:31:14.707Z,10.25
2022-08-30T01:32:14.149Z,10.28
2022-08-30T01:33:16.596Z,10.32
2022-08-30T01:34:14.642Z,10.31
2022-08-30T01:35:14.119Z,10.2
2022-08-30T01:36:14.362Z,10.17
2022-08-30T01:37:14.607Z,10.21
2022-08-30T01:38:14.593Z,10.2
2022-08-30T01:39:14.327Z,10.17
2022-08-30T01:41:14.561Z,10.13
2022-08-30T01:42:14.289Z,10.21
2022-08-30T01:43:14.722Z,10.11
2022-08-30T01:44:14.530Z,10.14
2022-08-30T01:45:14.358Z,10.15
2022-08-30T01:46:14.830Z,10.15
2022-08-30T01:47:14.495Z,10.14
2022-08-30T01:48:15.306Z,10.15
2022-08-30T01:49:14.214Z,10.05
2022-08-30T01:50:13.954Z,10.15
2022-08-30T01:51:14.448Z,10.14
2022-08-30T01:52:14.178Z,10.08
2022-08-30T01:53:18.192Z,10.17
2022-08-30T01:54:14.410Z,9.99
2022-08-30T01:55:14.399Z,10.03
2022-08-30T01:56:14.130Z,10.02
2022-08-30T01:57:14.133Z,10.02
2022-08-30T01:58:14.111Z,10.07
2022-08-30T01:59:14.339Z,10.1
2022-08-30T02:00:13.829Z,10.03
2022-08-30T02:01:14.086Z,10.08
2022-08-30T02:02:14.064Z,10.13
2022-08-30T02:03:13.877Z,10.11
2022-08-30T02:04:14.319Z,10.1
2022-08-30T02:05:14.031Z,10.07
2022-08-30T02:06:14.015Z,10.07
2022-08-30T02:07:14.262Z,10.07
2022-08-30T02:08:13.992Z,10.15
2022-08-30T02:09:14.234Z,10.03
2022-08-30T02:10:13.715Z,10.13
2022-08-30T02:11:13.713Z,10.17
2022-08-30T02:12:13.952Z,10.14
2022-08-30T02:13:13.794Z,10.17
2022-08-30T02:14:13.927Z,10.17
2022-08-30T02:15:13.911Z,10.14
2022-08-30T02:16:14.071Z,10.17
2022-08-30T02:17:13.904Z,10.17
2022-08-30T02:18:13.624Z,10.13
2022-08-30T02:19:17.629Z,10.1
2022-08-30T02:20:13.603Z,10.18
2022-08-30T02:21:13.851Z,10.15
2022-08-30T02:22:13.856Z,10.14
2022-08-30T02:23:14.128Z,10.13
2022-08-30T02:24:13.809Z,10.14
2022-08-30T02:25:24.682Z,10.1
2022-08-30T02:26:13.787Z,10.13
2022-08-30T02:27:13.784Z,10.17
2022-08-30T02:28:18.439Z,10.18
2022-08-30T02:29:13.500Z,10.14
2022-08-30T02:30:13.762Z,10.15
2022-08-30T02:31:14.116Z,10.17
2022-08-30T02:32:13.983Z,10.15
2022-08-30T02:33:13.781Z,10.18
2022-08-30T02:34:13.704Z,10.17
2022-08-30T02:35:13.682Z,10.15
2022-08-30T02:36:13.937Z,10.15
2022-08-30T02:37:13.657Z,10.17
2022-08-30T02:38:13.950Z,10.11
2022-08-30T02:39:13.911Z,10.17
2022-08-30T02:40:14.124Z,10.17
2022-08-30T02:41:13.870Z,10.18
2022-08-30T02:42:13.599Z,10.1
2022-08-30T02:43:13.914Z,10.21
2022-08-30T02:44:13.585Z,10.15
2022-08-30T02:45:13.823Z,10.14
2022-08-30T02:46:13.875Z,10.17
2022-08-30T02:47:13.801Z,10.03
2022-08-30T02:48:13.790Z,10.02
2022-08-30T02:49:37.127Z,10.07
2022-08-30T02:50:13.513Z,10
2022-08-30T02:51:15.937Z,10.02
2022-08-30T02:52:13.485Z,9.99
2022-08-30T02:53:19.029Z,10.02
2022-08-30T02:54:13.236Z,10.07
2022-08-30T02:55:13.734Z,10.03
2022-08-30T02:56:13.722Z,10.05
2022-08-30T02:57:24.914Z,10.03
2022-08-30T02:58:13.166Z,10.08
2022-08-30T02:59:13.656Z,10.02
2022-08-30T03:00:13.644Z,9.92
2022-08-30T03:01:13.895Z,9.99
2022-08-30T03:02:13.375Z,9.93
2022-08-30T03:03:13.853Z,9.92
2022-08-30T03:04:13.597Z,9.92
2022-08-30T03:05:13.332Z,9.9
2022-08-30T03:06:13.324Z,9.93
2022-08-30T03:07:13.570Z,9.96
2022-08-30T03:08:13.046Z,9.9
2022-08-30T03:09:13.283Z,10
2022-08-30T03:10:13.918Z,9.95
2022-08-30T03:11:13.514Z,9.89
2022-08-30T03:12:13.250Z,9.93
2022-08-30T03:13:13.366Z,9.9
2022-08-30T03:14:13.484Z,9.9
2022-08-30T03:15:12.952Z,9.93
2022-08-30T03:16:13.340Z,9.81
2022-08-30T03:17:19.942Z,9.82
2022-08-30T03:18:13.178Z,9.85
2022-08-30T03:19:13.423Z,9.82
2022-08-30T03:20:13.416Z,9.9
2022-08-30T03:21:13.398Z,9.82
2022-08-30T03:22:13.137Z,9.81
2022-08-30T03:23:23.877Z,9.85
2022-08-30T03:24:13.109Z,9.8
2022-08-30T03:25:13.101Z,9.8
2022-08-30T03:26:13.089Z,9.84
2022-08-30T03:27:13.333Z,9.81
2022-08-30T03:28:13.064Z,9.75
2022-08-30T03:29:15.882Z,9.72
2022-08-30T03:30:13.289Z,9.75
2022-08-30T03:31:13.109Z,9.82
2022-08-30T03:32:13.482Z,9.8
2022-08-30T03:49:37.911Z,9.72
2022-08-30T03:50:37.895Z,9.63
2022-08-30T03:51:38.140Z,9.63
2022-08-30T03:52:38.119Z,9.64
2022-08-30T03:53:37.597Z,9.6
2022-08-30T03:54:39.955Z,9.6
2022-08-30T03:55:37.563Z,9.55
2022-08-30T03:56:37.547Z,9.57
2022-08-30T03:57:39.106Z,9.6
2022-08-30T03:58:37.780Z,9.55
2022-08-30T03:59:37.764Z,9.56
2022-08-30T04:00:38.189Z,9.56
2022-08-30T04:01:38.085Z,9.57
2022-08-30T04:02:37.978Z,9.6
2022-08-30T04:03:37.717Z,9.59
2022-08-30T04:04:37.450Z,9.63
2022-08-30T04:05:37.690Z,9.6
2022-08-30T04:06:37.683Z,9.53
2022-08-30T04:07:37.722Z,9.53
2022-08-30T04:08:37.657Z,9.56
2022-08-30T04:09:37.900Z,9.45
2022-08-30T04:10:37.877Z,9.57
2022-08-30T04:11:37.868Z,9.56
2022-08-30T04:12:38.643Z,9.53
2022-08-30T04:13:37.331Z,9.45
2022-08-30T04:14:37.321Z,9.55
2022-08-30T04:15:37.307Z,9.48
2022-08-30T04:16:37.745Z,9.47
2022-08-30T04:17:37.281Z,9.52
2022-08-30T04:18:37.526Z,9.55
2022-08-30T04:19:37.519Z,9.48
2022-08-30T04:20:37.503Z,9.6
2022-08-30T04:21:45.663Z,9.5
2022-08-30T04:22:37.481Z,9.52
2022-08-30T04:23:37.206Z,9.6
2022-08-30T04:24:37.450Z,9.55
2022-08-30T04:25:37.470Z,9.55
2022-08-30T04:26:37.425Z,9.59
2022-08-30T04:27:37.418Z,9.64
2022-08-30T04:28:37.665Z,9.7
2022-08-30T04:29:37.647Z,9.71
2022-08-30T04:30:37.382Z,9.7
2022-08-30T04:31:37.579Z,9.75
2022-08-30T04:32:37.611Z,9.75
2022-08-30T04:33:40.711Z,9.74
2022-08-30T04:34:37.077Z,9.71
2022-08-30T04:35:37.590Z,9.77
2022-08-30T04:36:37.302Z,9.78
2022-08-30T04:37:37.549Z,9.85
2022-08-30T04:38:37.537Z,9.88
2022-08-30T04:39:37.276Z,9.89
2022-08-30T04:40:37.547Z,9.95
2022-08-30T04:41:37.244Z,9.96
2022-08-30T04:42:36.979Z,9.9
2022-08-30T04:43:37.220Z,9.9
2022-08-30T04:44:36.976Z,10.03
2022-08-30T04:45:37.410Z,10.1
2022-08-30T04:46:37.440Z,10.1
2022-08-30T04:47:37.186Z,10.07
2022-08-30T04:48:37.421Z,9.98
2022-08-30T04:49:37.406Z,10.05
2022-08-30T04:50:37.135Z,10.03
2022-08-30T04:51:37.123Z,10.1
2022-08-30T04:52:37.112Z,10.07
2022-08-30T04:53:37.106Z,9.99
2022-08-30T04:54:37.089Z,10
2022-08-30T04:55:37.097Z,10.05
2022-08-30T04:56:37.074Z,10.02
2022-08-30T04:57:37.059Z,10.08
2022-08-30T04:58:37.044Z,10.11
2022-08-30T04:59:37.029Z,10.17
2022-08-30T05:00:36.966Z,10.15
2022-08-30T05:01:49.381Z,10.17
2022-08-30T05:02:37.540Z,10.29
2022-08-30T05:03:37.242Z,10.2
2022-08-30T05:04:36.988Z,10.2
2022-08-30T05:05:37.225Z,10.21
2022-08-30T05:06:37.205Z,10.17
2022-08-30T05:07:36.699Z,10.26
2022-08-30T05:08:36.926Z,10.33
2022-08-30T05:09:37.071Z,10.32
2022-08-30T05:10:36.647Z,10.32
2022-08-30T05:11:37.145Z,10.33
2022-08-30T05:12:36.621Z,10.33
2022-08-30T05:13:41.514Z,10.33
2022-08-30T05:14:36.863Z,10.31
2022-08-30T05:15:36.586Z,10.38
2022-08-30T05:16:37.135Z,10.36
2022-08-30T05:17:36.565Z,10.38
2022-08-30T05:18:37.067Z,10.42
2022-08-30T05:19:37.053Z,10.44
2022-08-30T05:20:37.063Z,10.47
2022-08-30T05:21:36.779Z,10.46
2022-08-30T05:22:36.766Z,10.51
2022-08-30T05:23:36.748Z,10.57
2022-08-30T05:24:36.485Z,10.57
2022-08-30T05:25:36.985Z,10.59
2022-08-30T05:26:36.864Z,10.59
2022-08-30T05:27:39.809Z,10.65
2022-08-30T05:28:37.121Z,10.63
2022-08-30T05:29:36.937Z,10.69
2022-08-30T05:30:36.685Z,10.66
2022-08-30T05:31:37.369Z,10.69
2022-08-30T05:32:36.649Z,10.65
2022-08-30T05:33:43.084Z,10.69
2022-08-30T05:34:36.883Z,10.72
2022-08-30T05:35:36.613Z,10.66
2022-08-30T05:36:36.604Z,10.72
2022-08-30T05:37:36.339Z,10.8
2022-08-30T05:38:36.833Z,10.76
2022-08-30T05:39:55.842Z,10.91
2022-08-30T05:40:37.073Z,10.9
2022-08-30T05:41:39.235Z,11
2022-08-30T05:42:36.535Z,10.95
2022-08-30T05:43:36.832Z,11.03
2022-08-30T05:44:36.775Z,11.09
2022-08-30T05:45:36.246Z,10.97
2022-08-30T05:46:36.221Z,11.02
2022-08-30T05:47:36.731Z,11.03
2022-08-30T05:48:36.210Z,11.08
2022-08-30T05:49:36.456Z,11.13
2022-08-30T05:50:40.017Z,11.13
2022-08-30T05:51:36.433Z,11.18
2022-08-30T05:52:36.680Z,11.23
2022-08-30T05:53:36.158Z,11.3
2022-08-30T05:54:36.400Z,11.33
2022-08-30T05:55:36.392Z,11.38
2022-08-30T05:56:36.633Z,11.42
2022-08-30T05:57:38.217Z,11.38
2022-08-30T05:58:36.352Z,11.39
2022-08-30T05:59:36.346Z,11.46
2022-08-30T06:00:36.080Z,11.57
2022-08-30T06:01:36.571Z,11.61
2022-08-30T06:02:36.659Z,11.63
2022-08-30T06:03:36.044Z,11.66
2022-08-30T06:04:36.300Z,11.68
2022-08-30T06:05:40.725Z,11.66
2022-08-30T06:06:36.272Z,11.82
2022-08-30T06:07:36.258Z,11.76
2022-08-30T06:08:36.502Z,11.82
2022-08-30T06:09:36.493Z,11.84
2022-08-30T06:10:36.479Z,11.94
2022-08-30T06:11:36.329Z,12.01
2022-08-30T06:12:35.968Z,11.98
2022-08-30T06:13:36.192Z,12.05
2022-08-30T06:14:36.199Z,12.08
2022-08-30T06:15:35.919Z,12.1
2022-08-30T06:16:36.579Z,12.16
2022-08-30T06:17:36.150Z,12.22
2022-08-30T06:18:36.145Z,12.22
2022-08-30T06:19:36.129Z,12.34
2022-08-30T06:20:35.862Z,12.29
2022-08-30T06:21:36.377Z,12.4
2022-08-30T06:22:36.357Z,12.44
2022-08-30T06:23:36.342Z,12.43
2022-08-30T06:25:01.182Z,12.59
2022-08-30T06:25:46.776Z,12.55
2022-08-30T06:26:37.076Z,12.59
2022-08-30T06:27:36.054Z,12.71
2022-08-30T06:28:36.306Z,12.76
2022-08-30T06:29:36.032Z,12.8
2022-08-30T06:30:36.279Z,12.89
2022-08-30T06:31:36.283Z,12.92
2022-08-30T06:32:36.001Z,12.96
2022-08-30T06:33:36.247Z,12.95
2022-08-30T06:34:36.252Z,13.09
2022-08-30T06:36:02.467Z,13.07
2022-08-30T06:36:35.958Z,13.02
2022-08-30T06:37:36.215Z,13.07
2022-08-30T06:38:36.194Z,13.1
2022-08-30T06:39:35.671Z,13.29
2022-08-30T06:40:36.127Z,13.24
2022-08-30T06:41:35.909Z,13.24
2022-08-30T06:42:35.906Z,13.28
2022-08-30T06:43:36.147Z,13.21
2022-08-30T06:44:35.693Z,13.28
2022-08-30T06:45:35.615Z,13.29
2022-08-30T06:46:36.514Z,13.27
2022-08-30T06:47:36.114Z,13.39
2022-08-30T06:48:35.854Z,13.42
2022-08-30T06:49:36.092Z,13.53
2022-08-30T06:50:36.424Z,13.51
2022-08-30T06:51:37.267Z,13.69
2022-08-30T06:52:36.784Z,13.97
2022-08-30T06:53:36.366Z,14.26
2022-08-30T06:54:36.045Z,14.53
2022-08-30T06:55:35.777Z,14.74
2022-08-30T06:56:36.140Z,15.02
2022-08-30T06:57:35.791Z,15.33
2022-08-30T06:58:36.012Z,15.71
2022-08-30T06:59:36.006Z,16.22
2022-08-30T07:00:35.483Z,16.36
2022-08-30T07:01:36.191Z,16.63
2022-08-30T07:02:35.750Z,16.69
2022-08-30T07:03:35.710Z,16.62
2022-08-30T07:04:35.957Z,16.59
2022-08-30T07:05:35.958Z,16.58
2022-08-30T07:06:35.685Z,16.87
2022-08-30T07:07:35.676Z,17.52
2022-08-30T07:08:35.927Z,18.32
2022-08-30T07:09:35.428Z,19
2022-08-30T07:10:35.427Z,19.85
2022-08-30T07:11:35.910Z,20.72
2022-08-30T07:12:35.391Z,21.38
2022-08-30T07:13:35.634Z,22.05
2022-08-30T07:14:35.373Z,22.85
2022-08-30T07:15:42.867Z,23.5
2022-08-30T07:16:35.620Z,24.03
2022-08-30T07:17:39.277Z,24.48
2022-08-30T07:18:35.346Z,24.87
2022-08-30T07:19:35.605Z,24.69
2022-08-30T07:20:44.984Z,24.4
2022-08-30T07:21:35.585Z,23.97
2022-08-30T07:22:35.852Z,23.55
2022-08-30T07:23:35.577Z,22.92
2022-08-30T07:24:35.827Z,22.36
2022-08-30T07:25:35.567Z,21.82
2022-08-30T07:26:35.823Z,21.36
2022-08-30T07:27:35.818Z,21.12
2022-08-30T07:28:35.558Z,20.83
2022-08-30T07:29:35.806Z,20.63
2022-08-30T07:30:35.539Z,20.42
2022-08-30T07:31:35.539Z,20.25
2022-08-30T07:32:35.787Z,19.95
2022-08-30T07:33:35.269Z,19.89
2022-08-30T07:34:35.522Z,19.65
2022-08-30T07:35:35.797Z,19.49
2022-08-30T07:36:35.516Z,19.32
2022-08-30T07:37:35.509Z,19.16
2022-08-30T07:38:35.243Z,18.96
2022-08-30T07:39:47.208Z,18.82
2022-08-30T07:40:35.732Z,18.68
2022-08-30T07:41:35.740Z,18.69
2022-08-30T07:42:35.228Z,18.54
2022-08-30T07:43:35.483Z,18.49
2022-08-30T07:44:35.215Z,18.31
2022-08-30T07:45:37.538Z,18.34
2022-08-30T07:46:35.924Z,18.23
2022-08-30T07:47:35.459Z,18.27
2022-08-30T07:48:36.265Z,18.29
2022-08-30T07:49:35.187Z,18.32
2022-08-30T07:50:35.435Z,18.23
2022-08-30T07:51:35.696Z,18.2
2022-08-30T07:53:35.751Z,18.32
2022-08-30T07:54:35.416Z,18.21
2022-08-30T07:55:35.167Z,18.31
2022-08-30T07:56:35.408Z,18.32
2022-08-30T07:57:36.006Z,18.41
2022-08-30T07:58:35.657Z,18.45
2022-08-30T07:59:38.878Z,18.53
2022-08-30T08:00:35.387Z,18.53
2022-08-30T08:01:35.837Z,18.59
2022-08-30T08:02:35.747Z,18.65
2022-08-30T08:03:35.368Z,18.72
2022-08-30T08:04:35.378Z,18.78
2022-08-30T08:05:35.617Z,18.82
2022-08-30T08:06:39.916Z,18.97
2022-08-30T08:07:35.605Z,18.96
2022-08-30T08:08:35.618Z,19.09
2022-08-30T08:09:35.085Z,19.09
2022-08-30T08:10:37.370Z,19.16
2022-08-30T08:11:38.390Z,19.2
2022-08-30T08:12:35.617Z,19.34
2022-08-30T08:13:56.276Z,19.4
2022-08-30T08:14:35.319Z,19.52
2022-08-30T08:15:35.258Z,19.49
2022-08-30T08:16:35.309Z,19.65
2022-08-30T08:17:35.298Z,19.78
2022-08-30T08:18:35.555Z,19.8
2022-08-30T08:19:35.291Z,19.89
2022-08-30T08:20:35.286Z,19.87
2022-08-30T08:21:35.026Z,20.02
2022-08-30T08:22:40.459Z,20.02
2022-08-30T08:23:35.271Z,20.16
2022-08-30T08:24:35.524Z,20.2
2022-08-30T08:25:35.315Z,20.08
2022-08-30T08:26:35.016Z,20.07
2022-08-30T08:27:35.513Z,20.15
2022-08-30T08:28:35.250Z,20.22
2022-08-30T08:29:35.247Z,20.16
2022-08-30T08:30:35.252Z,20.26
2022-08-30T08:31:38.250Z,20.23
2022-08-30T08:32:35.491Z,20.29
2022-08-30T08:33:35.234Z,20.44
2022-08-30T08:34:35.485Z,20.46
2022-08-30T08:35:35.221Z,20.48
2022-08-30T08:36:35.481Z,20.66
2022-08-30T08:37:35.212Z,20.58
2022-08-30T08:38:35.215Z,20.71
2022-08-30T08:39:34.946Z,20.72
2022-08-30T08:40:35.675Z,20.75
2022-08-30T08:41:35.192Z,20.72
2022-08-30T08:42:34.935Z,20.68
2022-08-30T08:43:35.448Z,20.78
2022-08-30T08:44:39.547Z,20.74
2022-08-30T08:45:35.670Z,20.83
2022-08-30T08:46:37.487Z,20.83
2022-08-30T08:47:35.867Z,21.08
2022-08-30T08:49:03.844Z,21.16
2022-08-30T08:49:36.644Z,21.21
2022-08-30T08:50:35.431Z,21.19
2022-08-30T08:51:35.414Z,21.25
2022-08-30T08:52:35.413Z,21.36
2022-08-30T08:53:51.518Z,21.37
2022-08-30T08:54:35.148Z,21.36
2022-08-30T08:55:35.184Z,21.46
2022-08-30T08:56:34.885Z,21.48
2022-08-30T08:57:34.878Z,21.53
2022-08-30T08:58:35.401Z,21.48
2022-08-30T08:59:35.132Z,21.59
2022-08-30T09:00:35.126Z,21.61
2022-08-30T09:01:35.297Z,21.7
2022-08-30T09:02:36.932Z,21.76
2022-08-30T09:03:35.396Z,21.78
2022-08-30T09:04:35.251Z,21.67
2022-08-30T09:05:35.364Z,21.68
2022-08-30T09:06:35.361Z,21.59
2022-08-30T09:07:35.111Z,21.61
2022-08-30T09:08:34.842Z,21.49
2022-08-30T09:09:35.353Z,21.48
2022-08-30T09:10:54.123Z,21.67
2022-08-30T09:11:35.346Z,21.61
2022-08-30T09:12:35.092Z,21.56
2022-08-30T09:13:35.759Z,21.56
2022-08-30T09:14:35.773Z,21.56
2022-08-30T09:15:36.356Z,21.49
2022-08-30T09:16:37.095Z,21.49
2022-08-30T09:17:35.072Z,21.49
2022-08-30T09:18:35.876Z,21.52
2022-08-30T09:19:39.647Z,21.53
2022-08-30T09:20:35.062Z,21.61
2022-08-30T09:21:35.561Z,21.52
2022-08-30T09:22:34.795Z,21.59
2022-08-30T09:23:35.052Z,21.66
2022-08-30T09:24:35.047Z,21.74
2022-08-30T09:25:37.676Z,21.78
2022-08-30T09:26:35.297Z,21.9
2022-08-30T09:27:35.047Z,21.96
2022-08-30T09:28:34.778Z,22.07
2022-08-30T09:29:35.731Z,22.02
2022-08-30T09:30:35.319Z,22.11
2022-08-30T09:31:34.963Z,22.08
2022-08-30T09:32:35.312Z,22.23
2022-08-30T09:33:35.277Z,22.23
2022-08-30T09:34:35.273Z,22.36
2022-08-30T09:35:35.014Z,22.45
2022-08-30T09:36:35.004Z,22.41
2022-08-30T09:37:35.010Z,22.41
2022-08-30T09:38:34.754Z,22.44
2022-08-30T09:39:34.742Z,22.44
2022-08-30T09:40:35.387Z,22.46
2022-08-30T09:41:35.546Z,22.48
2022-08-30T09:42:34.896Z,22.39
2022-08-30T09:43:34.740Z,22.49
2022-08-30T09:44:35.000Z,22.54
2022-08-30T09:45:35.244Z,22.63
2022-08-30T09:46:35.246Z,22.75
2022-08-30T09:47:35.846Z,22.86
2022-08-30T09:48:35.370Z,22.96
2022-08-30T09:49:34.983Z,22.82
2022-08-30T09:50:35.226Z,22.82
2022-08-30T09:51:34.963Z,22.84
2022-08-30T09:52:35.227Z,22.75
2022-08-30T09:53:37.151Z,22.76
2022-08-30T09:54:35.689Z,22.79
2022-08-30T09:55:34.955Z,22.79
2022-08-30T09:56:35.219Z,22.78
2022-08-30T09:57:39.667Z,22.88
2022-08-30T09:58:34.691Z,22.75
2022-08-30T09:59:35.130Z,22.76
2022-08-30T10:00:34.892Z,22.67
2022-08-30T10:01:35.067Z,22.63
2022-08-30T10:02:35.199Z,22.71
2022-08-30T10:03:45.224Z,22.76
2022-08-30T10:04:36.237Z,22.71
2022-08-30T10:05:34.929Z,22.66
2022-08-30T10:06:34.927Z,22.63
2022-08-30T10:07:34.928Z,22.66
2022-08-30T10:08:35.183Z,22.57
2022-08-30T10:09:35.185Z,22.61
2022-08-30T10:10:34.727Z,22.51
2022-08-30T10:11:34.664Z,22.6
2022-08-30T10:12:35.177Z,22.55
2022-08-30T10:13:38.546Z,22.63
2022-08-30T10:14:34.914Z,22.67
2022-08-30T10:15:34.910Z,22.71
2022-08-30T10:16:35.181Z,22.78
2022-08-30T10:17:40.999Z,22.76
2022-08-30T10:18:34.952Z,22.73
2022-08-30T10:19:34.901Z,22.61
2022-08-30T10:20:34.651Z,22.7
2022-08-30T10:21:35.132Z,22.75
2022-08-30T10:22:36.086Z,22.79
2022-08-30T10:23:35.177Z,22.75
2022-08-30T10:24:38.385Z,22.76
2022-08-30T10:25:35.397Z,22.79
2022-08-30T10:26:34.890Z,22.82
2022-08-30T10:27:35.283Z,22.84
2022-08-30T10:28:34.885Z,22.79
2022-08-30T10:29:38.370Z,22.89
2022-08-30T10:30:34.871Z,22.84
2022-08-30T10:31:34.674Z,22.89
2022-08-30T10:32:34.610Z,23.01
2022-08-30T10:33:36.248Z,23.1
2022-08-30T10:34:34.807Z,23.15
2022-08-30T10:35:43.065Z,23.22
2022-08-30T10:36:34.938Z,23.14
2022-08-30T10:37:35.035Z,23.25
2022-08-30T10:38:37.392Z,23.24
2022-08-30T10:39:36.025Z,23.16
2022-08-30T10:40:34.853Z,22.99
2022-08-30T10:41:37.650Z,23.03
2022-08-30T10:42:40.369Z,22.99
2022-08-30T10:43:34.593Z,22.81
2022-08-30T10:44:35.092Z,22.88
2022-08-30T10:45:35.094Z,22.84
2022-08-30T10:46:35.170Z,22.88
2022-08-30T10:47:34.836Z,22.86
2022-08-30T10:48:34.848Z,22.96
2022-08-30T10:49:35.087Z,23.01
2022-08-30T10:50:41.062Z,23.06
2022-08-30T10:51:37.041Z,23.14
2022-08-30T10:52:35.076Z,23.21
2022-08-30T10:53:35.057Z,23.32
2022-08-30T10:54:35.077Z,23.4
2022-08-30T10:55:35.250Z,23.37
2022-08-30T10:56:34.811Z,23.42
2022-08-30T10:57:34.553Z,23.45
2022-08-30T10:58:34.551Z,23.47
2022-08-30T10:59:35.049Z,23.59
2022-08-30T11:00:34.811Z,23.7
2022-08-30T11:01:35.863Z,23.64
2022-08-30T11:02:35.068Z,23.62
2022-08-30T11:03:34.800Z,23.64
2022-08-30T11:04:35.054Z,23.67
2022-08-30T11:05:35.011Z,23.78
2022-08-30T11:06:35.189Z,23.77
2022-08-30T11:07:34.792Z,23.72
2022-08-30T11:08:34.784Z,23.62
2022-08-30T11:09:38.345Z,23.62
2022-08-30T11:10:34.958Z,23.63
2022-08-30T11:11:35.307Z,23.66
2022-08-30T11:12:34.898Z,23.63
2022-08-30T11:13:35.044Z,23.6
2022-08-30T11:14:34.778Z,23.7
2022-08-30T11:15:34.777Z,23.66
2022-08-30T11:16:35.034Z,23.64
2022-08-30T11:17:34.779Z,23.56
2022-08-30T11:18:34.863Z,23.59
2022-08-30T11:19:37.087Z,23.62
2022-08-30T11:20:37.080Z,23.59
2022-08-30T11:21:36.310Z,23.56
2022-08-30T11:22:39.456Z,23.48
2022-08-30T11:23:37.170Z,23.53
2022-08-30T11:24:34.505Z,23.55
2022-08-30T11:25:37.192Z,23.6
2022-08-30T11:26:35.008Z,23.57
2022-08-30T11:27:34.785Z,23.57
2022-08-30T11:28:35.020Z,23.6
2022-08-30T11:29:36.796Z,23.44
2022-08-30T11:30:35.215Z,23.56
2022-08-30T11:31:35.001Z,23.52
2022-08-30T11:32:35.226Z,23.55
2022-08-30T11:33:35.001Z,23.56
2022-08-30T11:34:34.742Z,23.52
2022-08-30T11:35:34.741Z,23.47
2022-08-30T11:36:48.739Z,23.6
2022-08-30T11:37:35.792Z,23.67
2022-08-30T11:38:34.749Z,23.74
2022-08-30T11:39:35.824Z,23.71
2022-08-30T11:40:34.731Z,23.77
2022-08-30T11:41:38.253Z,23.66
2022-08-30T11:42:34.782Z,23.63
2022-08-30T11:43:37.100Z,23.64
2022-08-30T11:44:35.418Z,23.64
2022-08-30T11:45:34.895Z,23.64
2022-08-30T11:46:34.623Z,23.67
2022-08-30T11:47:37.143Z,23.7
2022-08-30T11:48:34.726Z,23.75
2022-08-30T11:49:35.199Z,23.75
2022-08-30T11:50:34.725Z,23.77
2022-08-30T11:51:37.391Z,23.77
2022-08-30T11:52:34.978Z,23.72
2022-08-30T11:53:34.784Z,23.67
2022-08-30T11:54:37.726Z,23.75
2022-08-30T11:55:35.709Z,23.66
2022-08-30T11:56:35.161Z,23.74
2022-08-30T11:57:34.708Z,23.77
2022-08-30T11:58:34.947Z,23.78
2022-08-30T11:59:34.959Z,23.77
2022-08-30T12:00:37.578Z,23.62
2022-08-30T12:02:01.303Z,23.56
2022-08-30T12:02:35.167Z,23.52
2022-08-30T12:03:35.463Z,23.44
2022-08-30T12:04:34.598Z,23.41
2022-08-30T12:05:35.838Z,23.28
2022-08-30T12:06:34.441Z,23.06
2022-08-30T12:07:40.998Z,22.89
2022-08-30T12:08:34.694Z,22.63
2022-08-30T12:09:34.692Z,22.55
2022-08-30T12:10:34.481Z,22.54
2022-08-30T12:11:34.890Z,22.54
2022-08-30T12:12:34.690Z,22.57
2022-08-30T12:13:37.112Z,22.66
2022-08-30T12:14:34.945Z,22.6
2022-08-30T12:15:35.609Z,22.6
2022-08-30T12:16:35.128Z,22.61
2022-08-30T12:17:35.205Z,22.79
2022-08-30T12:18:34.676Z,22.89
2022-08-30T12:19:35.521Z,23.03
2022-08-30T12:20:34.673Z,23.06
2022-08-30T12:21:47.909Z,23.25
2022-08-30T12:22:35.952Z,23.32
2022-08-30T12:23:34.942Z,23.24
2022-08-30T12:24:35.045Z,23.26
2022-08-30T12:25:35.044Z,23.22
2022-08-30T12:26:35.489Z,23.28
2022-08-30T12:27:37.667Z,23.24
2022-08-30T12:28:34.660Z,23.19
2022-08-30T12:29:34.658Z,23.19
2022-08-30T12:30:34.652Z,23.34
2022-08-30T12:31:34.592Z,23.26
2022-08-30T12:32:34.910Z,23.32
2022-08-30T12:33:43.579Z,23.25
2022-08-30T12:34:34.397Z,23.32
2022-08-30T12:35:36.034Z,23.18
2022-08-30T12:36:36.054Z,23.1
2022-08-30T12:37:34.640Z,23.15
2022-08-30T12:38:37.594Z,23.14
2022-08-30T12:39:34.635Z,22.99
2022-08-30T12:40:34.915Z,23
2022-08-30T12:41:35.626Z,23.04
2022-08-30T12:42:34.630Z,23.07
2022-08-30T12:43:45.184Z,23.04
2022-08-30T12:44:34.881Z,23.15
2022-08-30T12:45:34.858Z,23.24
2022-08-30T12:46:36.161Z,23.25
2022-08-30T12:47:34.897Z,23.16
2022-08-30T12:48:34.873Z,23.12
2022-08-30T12:49:34.622Z,23.09
2022-08-30T12:50:35.046Z,23.04
2022-08-30T12:51:34.620Z,23.06
2022-08-30T12:52:34.613Z,22.88
2022-08-30T12:53:34.611Z,22.86
2022-08-30T12:54:34.868Z,22.88
2022-08-30T12:55:34.861Z,22.89
2022-08-30T12:56:54.073Z,22.99
2022-08-30T12:57:39.842Z,23.03
2022-08-30T12:58:36.582Z,23.22
2022-08-30T12:59:36.469Z,23.34
2022-08-30T13:00:36.121Z,23.41
2022-08-30T13:01:36.434Z,23.53
2022-08-30T13:02:35.010Z,23.6
2022-08-30T13:03:35.386Z,23.72
2022-08-30T13:04:34.846Z,23.77
2022-08-30T13:05:38.307Z,23.79
2022-08-30T13:06:34.327Z,23.77
2022-08-30T13:07:37.799Z,23.89
2022-08-30T13:08:34.837Z,23.9
2022-08-30T13:09:37.271Z,23.84
2022-08-30T13:10:34.880Z,23.85
2022-08-30T13:11:34.570Z,23.79
2022-08-30T13:12:34.829Z,23.78
2022-08-30T13:13:35.336Z,23.66
2022-08-30T13:14:35.160Z,23.66
2022-08-30T13:15:34.316Z,23.48
2022-08-30T13:16:38.850Z,23.44